Time;durP1;ratioP1;P1;durP2;ratioP2;P2;SDS_P1;SDS_P2;PMS_P1;PMS_P2;Temp;Humidity;BMP_temperature;BMP_pressure;BME280_temperature;BME280_humidity;BME280_pressure;Samples;Min_cycle;Max_cycle;Signal;HPM_P1;HPM_P2
2023/07/13 00:00:38;;;;;;;8.52;3.10;;;;;;;;;;4864931;29;20044;-91
2023/07/13 00:03:06;;;;;;;18.38;2.72;;;;;;;;;;4865937;29;20104;-92
2023/07/13 00:05:38;;;;;;;12.88;3.22;;;;;;;;;;4869122;29;20024;-91
2023/07/13 00:08:04;;;;;;;11.60;3.22;;;;;;;;;;4859661;29;20243;-91
2023/07/13 00:10:31;;;;;;;9.05;2.75;;;;;;;;;;4869326;29;20036;-91
2023/07/13 00:13:01;;;;;;;10.23;2.80;;;;;;;;;;4866728;29;20024;-91
2023/07/13 00:15:29;;;;;;;12.20;2.60;;;;;;;;;;4882775;29;20100;-91
2023/07/13 00:18:05;;;;;;;14.30;2.60;;;;;;;;;;4865563;29;20035;-91
2023/07/13 00:20:33;;;;;;;8.85;2.70;;;;;;;;;;4867320;29;20104;-92
2023/07/13 00:23:04;;;;;;;5.97;2.20;;;;;;;;;;4883503;29;20028;-91
2023/07/13 00:25:41;;;;;;;13.70;2.97;;;;;;;;;;4884730;29;20040;-91
2023/07/13 00:28:08;;;;;;;13.35;2.55;;;;;;;;;;4886318;28;20413;-90
2023/07/13 00:30:35;;;;;;;17.88;3.55;;;;;;;;;;4876337;29;20029;-90
2023/07/13 00:33:01;;;;;;;11.75;2.22;;;;;;;;;;4879635;29;20345;-91
2023/07/13 00:35:49;;;;;;;10.40;2.13;;;;;;;;;;4862821;29;20045;-92
2023/07/13 00:38:20;;;;;;;16.48;3.05;;;;;;;;;;4877689;29;20057;-91
2023/07/13 00:40:59;;;;;;;13.40;2.80;;;;;;;;;;4879272;29;20137;-91
2023/07/13 00:43:29;;;;;;;19.67;3.60;;;;;;;;;;4869498;29;20048;-91
2023/07/13 00:46:02;;;;;;;16.65;3.03;;;;;;;;;;4880861;29;20024;-91
2023/07/13 00:48:31;;;;;;;18.65;3.05;;;;;;;;;;4879172;29;20349;-91
2023/07/13 00:50:58;;;;;;;14.80;2.53;;;;;;;;;;4877460;29;20041;-91
2023/07/13 00:53:26;;;;;;;10.05;2.60;;;;;;;;;;4880684;29;20036;-91
2023/07/13 00:55:57;;;;;;;12.63;2.80;;;;;;;;;;4877094;29;20044;-90
2023/07/13 00:58:25;;;;;;;7.85;2.33;;;;;;;;;;4865654;29;20547;-91
2023/07/13 01:00:55;;;;;;;17.75;3.15;;;;;;;;;;4883869;29;20119;-91
2023/07/13 01:03:26;;;;;;;15.40;3.47;;;;;;;;;;4882435;29;20041;-91
2023/07/13 01:05:57;;;;;;;12.38;3.20;;;;;;;;;;4863854;29;20036;-92
2023/07/13 01:08:23;;;;;;;10.35;3.00;;;;;;;;;;4879096;29;20029;-91
2023/07/13 01:11:01;;;;;;;12.70;2.80;;;;;;;;;;4867202;29;20116;-90
2023/07/13 01:13:41;;;;;;;9.45;2.60;;;;;;;;;;4881328;29;20033;-92
2023/07/13 01:16:15;;;;;;;17.10;4.10;;;;;;;;;;4872468;29;20041;-92
2023/07/13 01:18:46;;;;;;;10.57;2.90;;;;;;;;;;4877859;29;20040;-91
2023/07/13 01:21:18;;;;;;;16.15;3.13;;;;;;;;;;4888334;29;20045;-92
2023/07/13 01:23:45;;;;;;;12.50;4.05;;;;;;;;;;4873144;29;20040;-92
2023/07/13 01:26:12;;;;;;;16.95;3.35;;;;;;;;;;4868897;29;20078;-90
2023/07/13 01:28:44;;;;;;;19.98;3.40;;;;;;;;;;4881353;29;20501;-91
2023/07/13 01:31:14;;;;;;;11.05;2.90;;;;;;;;;;4874189;29;20033;-91
2023/07/13 01:33:41;;;;;;;23.45;3.80;;;;;;;;;;4867839;29;20448;-91
2023/07/13 01:36:08;;;;;;;14.70;3.10;;;;;;;;;;4866508;29;20049;-91
2023/07/13 01:38:35;;;;;;;13.70;3.15;;;;;;;;;;4881970;29;20119;-91
2023/07/13 01:41:25;;;;;;;15.65;3.58;;;;;;;;;;4871454;29;20037;-91
2023/07/13 01:43:51;;;;;;;14.57;2.67;;;;;;;;;;4879491;29;20029;-91
2023/07/13 01:46:17;;;;;;;14.98;2.90;;;;;;;;;;4870853;29;20049;-91
2023/07/13 01:48:50;;;;;;;8.38;2.40;;;;;;;;;;4869110;29;20104;-91
2023/07/13 01:51:17;;;;;;;8.98;2.70;;;;;;;;;;4867627;29;20029;-91
2023/07/13 01:53:50;;;;;;;14.68;2.78;;;;;;;;;;4869562;29;20047;-91
2023/07/13 01:56:26;;;;;;;14.10;2.80;;;;;;;;;;4864344;29;20043;-92
2023/07/13 01:58:53;;;;;;;13.55;2.72;;;;;;;;;;4864172;29;20044;-91
2023/07/13 02:01:20;;;;;;;13.38;2.80;;;;;;;;;;4882539;29;20037;-91
2023/07/13 02:03:47;;;;;;;13.45;3.00;;;;;;;;;;4867555;29;20041;-91
2023/07/13 02:06:20;;;;;;;9.65;2.40;;;;;;;;;;4886402;29;20036;-90
2023/07/13 02:08:50;;;;;;;12.93;2.30;;;;;;;;;;4880259;29;20035;-91
2023/07/13 02:11:20;;;;;;;15.82;3.25;;;;;;;;;;4885041;29;20037;-91
2023/07/13 02:13:51;;;;;;;15.60;2.80;;;;;;;;;;4881243;29;20042;-91
2023/07/13 02:16:18;;;;;;;21.63;3.20;;;;;;;;;;4889596;29;20068;-91
2023/07/13 02:18:52;;;;;;;12.23;2.88;;;;;;;;;;4868850;29;20044;-91
2023/07/13 02:21:23;;;;;;;8.35;2.80;;;;;;;;;;4886149;29;20509;-91
2023/07/13 02:23:54;;;;;;;10.07;2.70;;;;;;;;;;4870618;29;20029;-91
2023/07/13 02:26:44;;;;;;;9.80;3.30;;;;;;;;;;4884219;29;20028;-90
2023/07/13 02:29:12;;;;;;;6.43;2.97;;;;;;;;;;4857801;29;20057;-91
2023/07/13 02:31:39;;;;;;;10.98;2.70;;;;;;;;;;4865872;29;20541;-91
2023/07/13 02:34:05;;;;;;;11.27;2.60;;;;;;;;;;4846213;29;20059;-91
2023/07/13 02:36:35;;;;;;;13.05;2.65;;;;;;;;;;4865219;29;20023;-91
2023/07/13 02:39:02;;;;;;;12.90;2.88;;;;;;;;;;4864023;29;20056;-90
2023/07/13 02:41:31;;;;;;;10.30;3.35;;;;;;;;;;4864963;29;20041;-90
2023/07/13 02:44:15;;;;;;;8.30;2.60;;;;;;;;;;4852879;29;20044;-91
2023/07/13 02:46:41;;;;;;;13.50;3.17;;;;;;;;;;4867292;29;20103;-91
2023/07/13 02:49:08;;;;;;;14.38;2.97;;;;;;;;;;4867357;29;20048;-89
2023/07/13 02:51:36;;;;;;;11.20;3.75;;;;;;;;;;4865317;29;20413;-91
2023/07/13 02:54:08;;;;;;;16.40;3.80;;;;;;;;;;4863083;29;20039;-91
2023/07/13 02:56:38;;;;;;;33.05;5.38;;;;;;;;;;4867037;29;20033;-92
2023/07/13 02:59:16;;;;;;;9.65;2.92;;;;;;;;;;4867022;29;20167;-90
2023/07/13 03:04:31;;;;;;;17.67;3.53;;;;;;;;;;4870223;29;20037;-91
2023/07/13 03:06:58;;;;;;;18.05;4.03;;;;;;;;;;4864723;29;20060;-91
2023/07/13 03:09:27;;;;;;;17.95;3.70;;;;;;;;;;4864553;29;20568;-91
2023/07/13 03:11:55;;;;;;;12.15;3.80;;;;;;;;;;4864252;29;20063;-91
2023/07/13 03:14:26;;;;;;;12.10;3.47;;;;;;;;;;4865867;29;20029;-91
2023/07/13 03:16:54;;;;;;;10.05;3.63;;;;;;;;;;4840977;29;20521;-90
2023/07/13 03:19:24;;;;;;;24.60;3.72;;;;;;;;;;4863795;29;20021;-90
2023/07/13 03:22:11;;;;;;;11.52;3.75;;;;;;;;;;4867436;29;20031;-91
2023/07/13 03:24:40;;;;;;;12.25;3.72;;;;;;;;;;4879037;29;20121;-91
2023/07/13 03:27:07;;;;;;;29.30;5.43;;;;;;;;;;4859639;29;20059;-89
2023/07/13 03:29:33;;;;;;;17.35;4.25;;;;;;;;;;4869201;29;20032;-90
2023/07/13 03:32:00;;;;;;;14.43;3.42;;;;;;;;;;4862908;29;20039;-91
2023/07/13 03:34:30;;;;;;;15.07;4.35;;;;;;;;;;4879649;29;20048;-90
2023/07/13 03:36:57;;;;;;;15.80;3.97;;;;;;;;;;4878440;29;20197;-91
2023/07/13 03:39:24;;;;;;;9.98;3.38;;;;;;;;;;4884973;29;20040;-91
2023/07/13 03:41:57;;;;;;;18.13;3.53;;;;;;;;;;4882352;29;20515;-91
2023/07/13 03:44:26;;;;;;;16.40;3.58;;;;;;;;;;4859759;29;20482;-90
2023/07/13 03:46:54;;;;;;;5.20;1.90;;;;;;;;;;4867549;29;20055;-90
2023/07/13 03:49:29;;;;;;;17.73;3.95;;;;;;;;;;4869378;29;20037;-91
2023/07/13 03:51:56;;;;;;;17.13;4.10;;;;;;;;;;4866152;29;20101;-91
2023/07/13 03:54:23;;;;;;;20.52;4.05;;;;;;;;;;4868436;29;20044;-90
2023/07/13 03:56:52;;;;;;;9.95;3.25;;;;;;;;;;4881809;29;20089;-90
2023/07/13 03:59:31;;;;;;;13.27;3.90;;;;;;;;;;4867675;29;20029;-90
2023/07/13 04:01:58;;;;;;;13.52;3.17;;;;;;;;;;4884676;29;20095;-91
2023/07/13 04:04:24;;;;;;;11.45;3.78;;;;;;;;;;4871028;29;20060;-91
2023/07/13 04:09:49;;;;;;;18.10;4.03;;;;;;;;;;4867627;29;20044;-90
2023/07/13 04:12:19;;;;;;;12.85;3.67;;;;;;;;;;4867544;29;20063;-92
2023/07/13 04:14:49;;;;;;;16.17;2.92;;;;;;;;;;4875085;29;20035;-91
2023/07/13 04:17:15;;;;;;;19.27;4.30;;;;;;;;;;4867216;29;20060;-90
2023/07/13 04:19:43;;;;;;;11.60;3.03;;;;;;;;;;4868985;29;20036;-91
2023/07/13 04:22:16;;;;;;;12.93;3.92;;;;;;;;;;4888570;29;20047;-91
2023/07/13 04:24:46;;;;;;;15.55;3.00;;;;;;;;;;4870925;29;20044;-92
2023/07/13 04:27:13;;;;;;;15.45;3.40;;;;;;;;;;4884747;29;20060;-91
2023/07/13 04:29:43;;;;;;;15.05;3.20;;;;;;;;;;4868720;29;20064;-92
2023/07/13 04:32:11;;;;;;;13.30;3.85;;;;;;;;;;4881438;29;20161;-91
2023/07/13 04:34:39;;;;;;;19.35;3.70;;;;;;;;;;4869447;29;20033;-90
2023/07/13 04:37:06;;;;;;;12.98;3.67;;;;;;;;;;4872640;29;20048;-91
2023/07/13 04:39:32;;;;;;;12.68;3.47;;;;;;;;;;4874813;29;20049;-91
2023/07/13 04:41:58;;;;;;;11.90;3.47;;;;;;;;;;4869442;29;20707;-91
2023/07/13 04:44:25;;;;;;;20.55;3.55;;;;;;;;;;4866736;29;20067;-91
2023/07/13 04:46:53;;;;;;;12.75;5.18;;;;;;;;;;4870360;29;20039;-91
2023/07/13 04:49:23;;;;;;;20.23;4.43;;;;;;;;;;4867814;29;20037;-91
2023/07/13 04:51:53;;;;;;;13.70;3.58;;;;;;;;;;4872396;29;20025;-91
2023/07/13 04:54:21;;;;;;;16.17;2.70;;;;;;;;;;4884151;29;20052;-90
2023/07/13 04:57:08;;;;;;;14.63;3.90;;;;;;;;;;4890894;29;20033;-91
2023/07/13 04:59:52;;;;;;;10.00;3.20;;;;;;;;;;4904535;29;20041;-92
2023/07/13 05:02:26;;;;;;;14.18;3.25;;;;;;;;;;4891506;29;20040;-90
2023/07/13 05:04:52;;;;;;;12.50;3.95;;;;;;;;;;4887188;29;20092;-91
2023/07/13 05:07:32;;;;;;;6.78;3.10;;;;;;;;;;4876406;29;20029;-90
2023/07/13 05:10:03;;;;;;;10.18;3.20;;;;;;;;;;4891806;29;20035;-91
2023/07/13 05:12:40;;;;;;;11.27;3.28;;;;;;;;;;4885645;29;20044;-90
2023/07/13 05:15:23;;;;;;;12.82;4.78;;;;;;;;;;4869995;29;20045;-91
2023/07/13 05:18:14;;;;;;;12.30;3.88;;;;;;;;;;4887026;29;20041;-91
2023/07/13 05:20:48;;;;;;;19.30;4.32;;;;;;;;;;4878002;29;20082;-91
2023/07/13 05:23:15;;;;;;;14.50;4.25;;;;;;;;;;4841436;29;20094;-92
2023/07/13 05:25:48;;;;;;;12.10;3.83;;;;;;;;;;4833881;29;20042;-90
2023/07/13 05:28:21;;;;;;;12.73;3.70;;;;;;;;;;4816595;29;20485;-91
2023/07/13 05:31:07;;;;;;;13.45;3.42;;;;;;;;;;4836314;29;20030;-90
2023/07/13 05:33:37;;;;;;;10.88;3.10;;;;;;;;;;4846288;29;20037;-91
2023/07/13 05:38:58;;;;;;;14.93;3.47;;;;;;;;;;4835497;29;20070;-90
2023/07/13 05:42:03;;;;;;;14.45;3.53;;;;;;;;;;4816609;29;20042;-91
2023/07/13 05:45:05;;;;;;;8.52;2.88;;;;;;;;;;4846819;29;20049;-91
2023/07/13 05:50:27;;;;;;;12.23;3.58;;;;;;;;;;4846055;29;20034;-90
2023/07/13 05:52:54;;;;;;;10.10;2.60;;;;;;;;;;4842410;29;20041;-91
2023/07/13 05:55:21;;;;;;;17.10;3.00;;;;;;;;;;4855506;29;20026;-90
2023/07/13 05:58:25;;;;;;;11.05;3.30;;;;;;;;;;4839936;29;20018;-90
2023/07/13 06:01:08;;;;;;;12.05;2.67;;;;;;;;;;4887938;23;20030;-90
2023/07/13 06:03:42;;;;;;;16.23;3.03;;;;;;;;;;4905433;29;20045;-89
2023/07/13 06:06:28;;;;;;;13.57;2.60;;;;;;;;;;4877714;29;20017;-90
2023/07/13 06:08:56;;;;;;;;;;;;;;;;;;4901125;29;20112;-89
2023/07/13 06:11:24;;;;;;;14.77;3.05;;;;;;;;;;4882008;29;19916;-90
2023/07/13 06:13:51;;;;;;;9.25;2.90;;;;;;;;;;4873634;29;20029;-88
2023/07/13 06:16:21;;;;;;;13.00;3.08;;;;;;;;;;4896559;29;20032;-89
2023/07/13 06:18:54;;;;;;;9.77;2.63;;;;;;;;;;4877347;29;20041;-89
2023/07/13 06:21:22;;;;;;;11.20;2.50;;;;;;;;;;4877787;29;20049;-90
2023/07/13 06:23:49;;;;;;;15.63;2.65;;;;;;;;;;4881286;29;20029;-90
2023/07/13 06:26:18;;;;;;;8.32;2.45;;;;;;;;;;4871766;29;20025;-89
2023/07/13 06:28:45;;;;;;;9.98;2.70;;;;;;;;;;4889851;29;20396;-90
2023/07/13 06:31:13;;;;;;;11.07;2.60;;;;;;;;;;4864288;29;20116;-90
2023/07/13 06:33:40;;;;;;;7.25;2.88;;;;;;;;;;4873433;29;20048;-91
2023/07/13 06:36:10;;;;;;;10.77;2.55;;;;;;;;;;4894839;29;20053;-90
2023/07/13 06:38:42;;;;;;;8.70;2.50;;;;;;;;;;4881184;29;20045;-90
2023/07/13 06:41:09;;;;;;;10.50;2.75;;;;;;;;;;4872678;29;20048;-89
2023/07/13 06:43:54;;;;;;;9.00;2.58;;;;;;;;;;4902194;29;20041;-90
2023/07/13 06:46:22;;;;;;;5.20;2.35;;;;;;;;;;4885426;29;20033;-87
2023/07/13 06:48:49;;;;;;;10.85;2.53;;;;;;;;;;4897930;29;20041;-89
2023/07/13 06:51:16;;;;;;;5.07;2.78;;;;;;;;;;4870455;29;20037;-89
2023/07/13 06:53:45;;;;;;;7.53;2.22;;;;;;;;;;4879722;29;20033;-89
2023/07/13 06:56:14;;;;;;;13.93;2.20;;;;;;;;;;4885899;29;20044;-90
2023/07/13 06:58:40;;;;;;;7.70;2.42;;;;;;;;;;4878866;29;20041;-90
2023/07/13 07:01:13;;;;;;;12.57;2.25;;;;;;;;;;4856887;29;20121;-89
2023/07/13 07:03:39;;;;;;;5.20;1.70;;;;;;;;;;4874150;29;20156;-90
2023/07/13 07:06:14;;;;;;;8.93;1.75;;;;;;;;;;4852109;29;20029;-90
2023/07/13 07:09:02;;;;;;;9.52;2.17;;;;;;;;;;4884018;29;20041;-89
2023/07/13 07:11:29;;;;;;;9.38;1.92;;;;;;;;;;4861931;29;20025;-89
2023/07/13 07:13:59;;;;;;;9.75;2.03;;;;;;;;;;4857984;29;20045;-90
2023/07/13 07:19:55;;;;;;;7.82;1.98;;;;;;;;;;4836761;29;20054;-90
2023/07/13 07:22:49;;;;;;;5.07;2.13;;;;;;;;;;4848660;29;20052;-90
2023/07/13 07:25:17;;;;;;;8.50;2.55;;;;;;;;;;4878144;29;20038;-90
2023/07/13 07:27:49;;;;;;;4.88;1.52;;;;;;;;;;4903264;29;20049;-90
2023/07/13 07:30:16;;;;;;;5.07;1.77;;;;;;;;;;4870682;29;20030;-89
2023/07/13 07:32:52;;;;;;;;;;;;;;;;;;;;;
2023/07/13 07:35:22;;;;;;;8.07;1.92;;;;;;;;;;4890584;29;20096;-90
2023/07/13 07:38:19;;;;;;;;;;;;;;;;;;;;;
2023/07/13 07:40:58;;;;;;;4.28;1.35;;;;;;;;;;4884017;29;20102;-90
2023/07/13 07:43:34;;;;;;;3.85;1.55;;;;;;;;;;4857873;29;20094;-90
2023/07/13 07:46:02;;;;;;;3.20;1.27;;;;;;;;;;4853513;29;20040;-89
2023/07/13 07:48:44;;;;;;;4.45;1.73;;;;;;;;;;4859998;29;20036;-89
2023/07/13 07:51:11;;;;;;;5.82;2.30;;;;;;;;;;4858811;29;20046;-91
2023/07/13 07:53:41;;;;;;;5.97;1.80;;;;;;;;;;4868372;29;20031;-91
2023/07/13 07:56:08;;;;;;;6.70;2.33;;;;;;;;;;4897074;29;20033;-89
2023/07/13 07:59:00;;;;;;;6.57;1.63;;;;;;;;;;4872766;29;20054;-91
2023/07/13 08:01:53;;;;;;;;;;;;;;;;;;;;;
2023/07/13 08:04:19;;;;;;;3.45;2.10;;;;;;;;;;4878600;29;20060;-90
2023/07/13 08:06:50;;;;;;;6.18;2.05;;;;;;;;;;4891351;29;20058;-91
2023/07/13 08:09:17;;;;;;;11.60;3.25;;;;;;;;;;4908704;29;20026;-90
2023/07/13 08:11:58;;;;;;;;;;;;;;;;;;;;;
2023/07/13 08:14:41;;;;;;;3.58;1.58;;;;;;;;;;4868412;29;20134;-91
2023/07/13 08:17:08;;;;;;;6.22;1.60;;;;;;;;;;4908739;29;20525;-90
2023/07/13 08:19:44;;;;;;;8.13;1.90;;;;;;;;;;4859367;29;20580;-91
2023/07/13 08:22:11;;;;;;;3.85;1.52;;;;;;;;;;4897675;29;20052;-91
2023/07/13 08:27:26;;;;;;;3.40;1.77;;;;;;;;;;4873843;29;20132;-92
2023/07/13 08:29:57;;;;;;;5.57;1.52;;;;;;;;;;4894932;29;20077;-91
2023/07/13 08:35:38;;;;;;;3.50;1.70;;;;;;;;;;4846724;29;20045;-90
2023/07/13 08:38:04;;;;;;;9.55;2.13;;;;;;;;;;4864418;29;20057;-91
2023/07/13 08:40:34;;;;;;;1.65;1.38;;;;;;;;;;4868136;29;20051;-91
2023/07/13 08:43:03;;;;;;;12.13;2.10;;;;;;;;;;4881938;29;20414;-90
2023/07/13 08:45:35;;;;;;;11.27;2.72;;;;;;;;;;4863744;29;20041;-90
2023/07/13 08:48:04;;;;;;;7.32;2.13;;;;;;;;;;4895093;29;20039;-91
2023/07/13 08:53:32;;;;;;;6.50;2.20;;;;;;;;;;4869092;29;20092;-91
2023/07/13 08:56:18;;;;;;;;;;;;;;;;;;;;;
2023/07/13 08:58:51;;;;;;;;;;;;;;;;;;4856689;29;20118;-91
2023/07/13 09:01:20;;;;;;;3.60;1.55;;;;;;;;;;4895291;29;20284;-91
2023/07/13 09:04:16;;;;;;;;;;;;;;;;;;;;;
2023/07/13 09:07:01;;;;;;;5.88;1.85;;;;;;;;;;4883577;29;20107;-91
2023/07/13 09:09:35;;;;;;;5.85;2.10;;;;;;;;;;4882952;29;20049;-91
2023/07/13 09:12:20;;;;;;;4.30;2.08;;;;;;;;;;4865755;29;20035;-91
2023/07/13 09:14:51;;;;;;;4.80;2.28;;;;;;;;;;4898723;29;20085;-91
2023/07/13 09:17:19;;;;;;;6.15;1.70;;;;;;;;;;4902366;29;20032;-91
2023/07/13 09:19:48;;;;;;;9.35;2.03;;;;;;;;;;4877290;29;20037;-90
2023/07/13 09:22:17;;;;;;;5.03;1.58;;;;;;;;;;4870345;29;20061;-90
2023/07/13 09:25:11;;;;;;;4.85;1.77;;;;;;;;;;4863756;29;20102;-91
2023/07/13 09:27:52;;;;;;;8.55;2.60;;;;;;;;;;4902790;29;20128;-91
2023/07/13 09:30:38;;;;;;;4.53;1.65;;;;;;;;;;4886219;29;20116;-92
2023/07/13 09:33:19;;;;;;;5.10;1.80;;;;;;;;;;4873270;29;20033;-92
2023/07/13 09:35:52;;;;;;;2.17;1.40;;;;;;;;;;4896775;29;20045;-92
2023/07/13 09:38:22;;;;;;;6.57;2.50;;;;;;;;;;4882094;29;20832;-91
2023/07/13 09:41:13;;;;;;;6.65;1.60;;;;;;;;;;4877953;29;20052;-91
2023/07/13 09:50:08;;;;;;;5.82;2.03;;;;;;;;;;4875864;29;20036;-90
2023/07/13 09:52:43;;;;;;;5.07;1.58;;;;;;;;;;4875311;29;20070;-90
2023/07/13 09:55:30;;;;;;;7.72;2.15;;;;;;;;;;4874443;29;20037;-91
2023/07/13 09:58:22;;;;;;;1.30;1.20;;;;;;;;;;4873538;29;20048;-91
2023/07/13 10:01:14;;;;;;;12.13;2.05;;;;;;;;;;4868044;29;20045;-91
2023/07/13 10:06:46;;;;;;;4.28;1.38;;;;;;;;;;4860197;29;20474;-91
2023/07/13 10:09:19;;;;;;;3.88;1.08;;;;;;;;;;4875295;29;20025;-92
2023/07/13 10:11:45;;;;;;;5.57;1.50;;;;;;;;;;4859470;29;20044;-90
2023/07/13 10:14:17;;;;;;;1.63;0.95;;;;;;;;;;4889423;29;20105;-91
2023/07/13 10:16:45;;;;;;;2.47;1.35;;;;;;;;;;4917352;29;20016;-92
2023/07/13 10:19:12;;;;;;;5.72;1.90;;;;;;;;;;4876535;29;20033;-91
2023/07/13 10:24:53;;;;;;;3.55;1.40;;;;;;;;;;4837174;29;20439;-91
2023/07/13 10:27:25;;;;;;;3.28;1.60;;;;;;;;;;4872169;29;20056;-91
2023/07/13 10:30:15;;;;;;;2.80;1.35;;;;;;;;;;4876002;29;20037;-91
2023/07/13 10:32:49;;;;;;;5.43;0.85;;;;;;;;;;4860514;29;20286;-91
2023/07/13 10:35:28;;;;;;;1.50;1.10;;;;;;;;;;4878911;29;20061;-91
2023/07/13 10:38:16;;;;;;;7.07;1.50;;;;;;;;;;4902664;29;20100;-92
2023/07/13 10:40:55;;;;;;;3.83;1.02;;;;;;;;;;4873779;29;20039;-92
2023/07/13 10:43:27;;;;;;;1.65;1.00;;;;;;;;;;4869498;29;20174;-91
2023/07/13 10:45:54;;;;;;;5.25;1.33;;;;;;;;;;4878673;29;20030;-91
2023/07/13 10:48:25;;;;;;;4.15;1.33;;;;;;;;;;4882926;29;20132;-91
2023/07/13 10:51:10;;;;;;;9.20;1.50;;;;;;;;;;4859080;29;20029;-92
2023/07/13 10:53:39;;;;;;;1.73;0.75;;;;;;;;;;4877518;29;20094;-92
2023/07/13 10:56:29;;;;;;;4.18;1.48;;;;;;;;;;4862296;29;20033;-91
2023/07/13 10:59:12;;;;;;;2.03;1.23;;;;;;;;;;4883834;29;20049;-92
2023/07/13 11:01:56;;;;;;;1.10;1.00;;;;;;;;;;4864960;29;20048;-92
2023/07/13 11:04:40;;;;;;;1.92;0.90;;;;;;;;;;4899364;29;20037;-92
2023/07/13 11:07:44;;;;;;;;;;;;;;;;;;;;;
2023/07/13 11:10:46;;;;;;;1.85;1.30;;;;;;;;;;4872477;29;20107;-91
2023/07/13 11:13:45;;;;;;;2.05;1.00;;;;;;;;;;4832301;29;20134;-92
2023/07/13 12:06:16;;;;;;;2.95;1.27;;;;;;;;;;4875332;29;20458;-89
2023/07/13 12:08:42;;;;;;;2.45;1.33;;;;;;;;;;4839589;29;20042;-90
2023/07/13 12:11:18;;;;;;;3.45;1.70;;;;;;;;;;4841300;29;20037;-90
2023/07/13 12:13:45;;;;;;;2.85;1.40;;;;;;;;;;4832592;29;20041;-90
2023/07/13 12:16:15;;;;;;;3.05;1.95;;;;;;;;;;4852025;29;20034;-89
2023/07/13 12:18:56;;;;;;;5.25;1.60;;;;;;;;;;4846638;29;20037;-90
2023/07/13 12:21:24;;;;;;;5.40;1.30;;;;;;;;;;4835154;29;20057;-89
2023/07/13 12:24:01;;;;;;;2.78;1.60;;;;;;;;;;4831727;29;20042;-90
2023/07/13 12:26:35;;;;;;;3.58;1.50;;;;;;;;;;4843653;29;20140;-90
2023/07/13 12:29:10;;;;;;;5.65;1.40;;;;;;;;;;4832981;29;20194;-88
2023/07/13 12:31:38;;;;;;;4.47;1.20;;;;;;;;;;4841789;29;20062;-89
2023/07/13 12:34:11;;;;;;;4.18;1.60;;;;;;;;;;4843686;29;20074;-90
2023/07/13 12:37:05;;;;;;;8.82;1.70;;;;;;;;;;4844725;29;20190;-89
2023/07/13 12:39:49;;;;;;;5.05;2.17;;;;;;;;;;4867830;29;20045;-89
2023/07/13 12:42:29;;;;;;;2.50;1.25;;;;;;;;;;4863278;29;20112;-89
2023/07/13 12:45:24;;;;;;;3.30;1.27;;;;;;;;;;4883362;29;20048;-89
2023/07/13 12:47:59;;;;;;;1.40;1.25;;;;;;;;;;4863051;29;20029;-89
2023/07/13 12:50:30;;;;;;;5.43;1.10;;;;;;;;;;4871864;29;20021;-89
2023/07/13 12:53:25;;;;;;;4.47;1.10;;;;;;;;;;4869672;29;20056;-88
2023/07/13 12:56:01;;;;;;;1.75;1.13;;;;;;;;;;4869653;29;20128;-89
2023/07/13 12:58:33;;;;;;;5.60;1.40;;;;;;;;;;4849028;29;20116;-89
2023/07/13 13:03:55;;;;;;;2.88;1.50;;;;;;;;;;4859497;29;20132;-90
2023/07/13 13:06:43;;;;;;;5.07;2.13;;;;;;;;;;4862458;29;20056;-90
2023/07/13 13:09:18;;;;;;;4.13;1.75;;;;;;;;;;4859018;29;20126;-87
2023/07/13 13:11:44;;;;;;;4.38;1.75;;;;;;;;;;4852060;29;20034;-89
2023/07/13 13:14:14;;;;;;;6.75;1.50;;;;;;;;;;4860625;29;20033;-87
2023/07/13 13:17:33;;;;;;;4.63;1.58;;;;;;;;;;4853257;29;20068;-88
2023/07/13 13:19:39;;;;;;;7.03;2.30;;;;;;;;;;4857612;29;20038;-88
2023/07/13 13:22:07;;;;;;;6.10;1.45;;;;;;;;;;4850317;29;20053;-88
2023/07/13 13:24:53;;;;;;;7.22;1.70;;;;;;;;;;4843596;29;20044;-89
2023/07/13 13:27:31;;;;;;;6.22;1.98;;;;;;;;;;4859293;29;20021;-89
2023/07/13 13:29:58;;;;;;;4.68;1.50;;;;;;;;;;4862199;29;20061;-90
2023/07/13 13:32:24;;;;;;;8.15;2.40;;;;;;;;;;4848443;29;20641;-89
2023/07/13 13:34:51;;;;;;;6.82;1.52;;;;;;;;;;4829690;29;20595;-89
2023/07/13 13:37:22;;;;;;;2.47;1.13;;;;;;;;;;4859358;29;20133;-88
2023/07/13 13:39:55;;;;;;;5.35;1.50;;;;;;;;;;4848737;29;20036;-89
2023/07/13 13:42:51;;;;;;;6.40;1.65;;;;;;;;;;4865956;29;20040;-88
2023/07/13 13:45:42;;;;;;;6.10;2.10;;;;;;;;;;4802627;29;20042;-89
2023/07/13 13:48:27;;;;;;;4.80;1.88;;;;;;;;;;4810056;29;20054;-88
2023/07/13 13:50:53;;;;;;;4.57;1.83;;;;;;;;;;4863961;29;20054;-89
2023/07/13 13:53:23;;;;;;;9.57;2.20;;;;;;;;;;4858951;29;20052;-89
2023/07/13 13:56:05;;;;;;;7.38;1.75;;;;;;;;;;4860789;29;20057;-89
2023/07/13 13:58:32;;;;;;;2.47;1.63;;;;;;;;;;4859971;29;20056;-88
2023/07/13 14:00:58;;;;;;;9.32;2.10;;;;;;;;;;4864924;29;20033;-89
2023/07/13 14:03:25;;;;;;;5.40;1.83;;;;;;;;;;4835894;29;20128;-89
2023/07/13 14:06:21;;;;;;;5.88;2.10;;;;;;;;;;4849952;29;20129;-89
2023/07/13 14:09:12;;;;;;;5.03;1.98;;;;;;;;;;4875003;29;20045;-89
2023/07/13 14:11:38;;;;;;;3.20;1.60;;;;;;;;;;4865987;29;20034;-89
2023/07/13 14:14:05;;;;;;;5.60;1.67;;;;;;;;;;4838311;29;20483;-88
2023/07/13 14:16:32;;;;;;;5.95;1.95;;;;;;;;;;4845404;29;20066;-89
2023/07/13 14:18:59;;;;;;;5.25;2.08;;;;;;;;;;4843880;29;20062;-88
2023/07/13 14:24:37;;;;;;;10.55;2.13;;;;;;;;;;4846273;29;20048;-89
2023/07/13 14:27:04;;;;;;;12.18;2.13;;;;;;;;;;4838007;29;20038;-89
2023/07/13 14:29:33;;;;;;;5.40;1.20;;;;;;;;;;4852538;29;20038;-89
2023/07/13 14:32:00;;;;;;;17.75;2.40;;;;;;;;;;4836389;29;20096;-88
2023/07/13 14:34:31;;;;;;;2.00;1.02;;;;;;;;;;4866674;29;20135;-88
2023/07/13 14:37:01;;;;;;;3.58;1.52;;;;;;;;;;4849402;29;20037;-89
2023/07/13 14:39:33;;;;;;;3.65;1.48;;;;;;;;;;4846869;29;20061;-89
2023/07/13 14:42:25;;;;;;;8.90;1.77;;;;;;;;;;4852214;29;20033;-88
2023/07/13 14:44:52;;;;;;;5.55;1.40;;;;;;;;;;4794311;29;20039;-88
2023/07/13 14:47:18;;;;;;;5.90;1.60;;;;;;;;;;4848793;29;20052;-88
2023/07/13 14:49:48;;;;;;;5.40;1.20;;;;;;;;;;4851325;29;20034;-88
2023/07/13 14:52:26;;;;;;;7.63;1.58;;;;;;;;;;4866486;29;20358;-89
2023/07/13 14:55:03;;;;;;;3.00;1.52;;;;;;;;;;4852302;29;20042;-89
2023/07/13 14:57:38;;;;;;;6.43;1.73;;;;;;;;;;4843119;29;20144;-89
2023/07/13 15:00:15;;;;;;;5.78;1.70;;;;;;;;;;4852937;29;20041;-88
2023/07/13 15:03:09;;;;;;;4.47;1.42;;;;;;;;;;4868618;29;20014;-88
2023/07/13 15:05:42;;;;;;;8.15;1.80;;;;;;;;;;4866490;29;20082;-88
2023/07/13 15:08:10;;;;;;;4.05;1.58;;;;;;;;;;4864524;29;20066;-88
2023/07/13 15:11:00;;;;;;;7.40;1.63;;;;;;;;;;4868597;29;20025;-88
2023/07/13 15:13:29;;;;;;;4.22;1.90;;;;;;;;;;4848643;29;20036;-88
2023/07/13 15:16:00;;;;;;;5.93;1.60;;;;;;;;;;4848455;29;20127;-87
2023/07/13 15:18:28;;;;;;;3.65;1.77;;;;;;;;;;4847820;29;20045;-88
2023/07/13 15:20:57;;;;;;;4.63;1.67;;;;;;;;;;4845061;29;20112;-89
2023/07/13 15:23:43;;;;;;;11.88;2.10;;;;;;;;;;4843147;29;20046;-89
2023/07/13 15:26:13;;;;;;;6.15;1.80;;;;;;;;;;4864425;29;20105;-88
2023/07/13 15:28:42;;;;;;;7.43;1.80;;;;;;;;;;4847469;29;20029;-89
2023/07/13 15:31:17;;;;;;;5.00;1.67;;;;;;;;;;4836679;29;20026;-88
2023/07/13 15:33:48;;;;;;;;;;;;;;;;;;4838610;29;20707;-89
2023/07/13 15:36:17;;;;;;;4.68;2.47;;;;;;;;;;4845594;29;20003;-89
2023/07/13 15:39:00;;;;;;;4.78;2.05;;;;;;;;;;4833487;29;20117;-89
2023/07/13 15:41:31;;;;;;;3.13;1.33;;;;;;;;;;4840776;29;21169;-88
2023/07/13 15:43:58;;;;;;;6.00;1.80;;;;;;;;;;4862584;29;20296;-89
2023/07/13 15:46:30;;;;;;;7.47;2.10;;;;;;;;;;4859406;29;20029;-87
2023/07/13 15:48:58;;;;;;;3.67;1.60;;;;;;;;;;4848127;29;20501;-88
2023/07/13 15:51:31;;;;;;;4.70;1.55;;;;;;;;;;4860692;29;20037;-88
2023/07/13 15:54:11;;;;;;;6.57;2.38;;;;;;;;;;4844343;29;20532;-89
2023/07/13 15:56:41;;;;;;;6.10;2.08;;;;;;;;;;4860309;29;20698;-89
2023/07/13 15:59:20;;;;;;;4.88;1.40;;;;;;;;;;4830958;29;20474;-90
2023/07/13 16:01:48;;;;;;;8.23;1.88;;;;;;;;;;4840191;29;20562;-89
2023/07/13 16:04:19;;;;;;;8.80;1.70;;;;;;;;;;4858296;29;20061;-88
2023/07/13 16:07:07;;;;;;;11.98;2.55;;;;;;;;;;4848075;29;20040;-89
2023/07/13 16:10:07;;;;;;;7.97;2.00;;;;;;;;;;4823556;29;20546;-88
2023/07/13 16:12:36;;;;;;;9.02;2.20;;;;;;;;;;4810890;29;20054;-89
2023/07/13 16:15:02;;;;;;;5.43;2.05;;;;;;;;;;4824496;29;20038;-89
2023/07/13 16:17:40;;;;;;;4.20;2.00;;;;;;;;;;4812471;29;20038;-88
2023/07/13 16:20:20;;;;;;;3.88;2.00;;;;;;;;;;4818657;29;20060;-88
2023/07/13 16:22:50;;;;;;;3.83;1.75;;;;;;;;;;4810957;29;20038;-88
2023/07/13 16:26:03;;;;;;;10.50;3.83;;;;;;;;;;4820060;29;20121;-89
2023/07/13 16:28:33;;;;;;;12.10;5.35;;;;;;;;;;4801129;29;20050;-88
2023/07/13 16:31:04;;;;;;;17.92;6.65;;;;;;;;;;4808893;29;20117;-89
2023/07/13 16:33:31;;;;;;;5.60;2.00;;;;;;;;;;4819026;29;20092;-89
2023/07/13 16:36:01;;;;;;;6.15;2.33;;;;;;;;;;4820446;29;20519;-89
2023/07/13 16:38:31;;;;;;;8.50;2.67;;;;;;;;;;4823104;29;20110;-89
2023/07/13 16:40:58;;;;;;;5.88;2.50;;;;;;;;;;4825391;29;20105;-88
2023/07/13 16:43:30;;;;;;;10.63;3.85;;;;;;;;;;4845743;29;20037;-90
2023/07/13 16:46:03;;;;;;;12.75;2.83;;;;;;;;;;4844819;29;20056;-88
2023/07/13 16:48:30;;;;;;;10.55;2.83;;;;;;;;;;4855977;29;20033;-89
2023/07/13 16:51:06;;;;;;;11.43;2.42;;;;;;;;;;4839948;29;20611;-88
2023/07/13 16:53:33;;;;;;;7.80;2.15;;;;;;;;;;4836531;29;20842;-89
2023/07/13 16:56:05;;;;;;;8.13;2.00;;;;;;;;;;4845694;29;20042;-89